Time,TemperatureF,DewpointF,PressureIn,WindDirection,WindDirectionDegrees,WindSpeedMPH,WindSpeedGustMPH,Humidity,HourlyPrecipIn,Conditions,Clouds,dailyrainin,SolarRadiationWatts/m^2,SoftwareType,DateUTC
2013-05-04 00:00:00,44.3,36.2,30.36,NNW,338,0.0,0.0,73,0.00,,,0.00,0000,Weather View 32 v70,2013-05-04 04:00:00,
2013-05-04 00:05:00,44.2,36.4,30.35,NNW,338,0.0,0.0,74,0.00,,,0.00,0000,Weather View 32 v70,2013-05-04 04:05:00,
2013-05-04 00:10:00,44.0,36.2,30.35,NNW,338,0.0,0.0,74,0.00,,,0.00,0000,Weather View 32 v70,2013-05-04 04:10:00,
2013-05-04 00:15:00,43.7,36.6,30.35,NNW,338,0.0,0.0,76,0.00,,,0.00,0000,Weather View 32 v70,2013-05-04 04:15:00,
2013-05-04 00:20:00,43.5,36.4,30.35,NNW,338,0.0,0.0,76,0.00,,,0.00,0000,Weather View 32 v70,2013-05-04 04:20:00,
2013-05-04 00:30:00,43.3,36.5,30.35,NNW,338,0.0,0.0,77,0.00,,,0.00,0000,Weather View 32 v70,2013-05-04 04:30:00,
2013-05-04 00:40:00,43.1,36.3,30.35,NNW,338,0.0,0.0,77,0.00,,,0.00,0000,Weather View 32 v70,2013-05-04 04:40:00,
2013-05-04 00:49:00,42.9,36.2,30.35,NNW,338,0.0,0.0,77,0.00,,,0.00,0000,Weather View 32 v70,2013-05-04 04:49:00,
2013-05-04 00:55:00,42.6,36.2,30.34,NNW,338,0.0,0.0,78,0.00,,,0.00,0000,Weather View 32 v70,2013-05-04 04:55:00,
2013-05-04 01:00:00,42.5,36.1,30.34,NNW,338,0.0,0.0,78,0.00,,,0.00,0008,Weather View 32 v70,2013-05-04 05:00:00,
2013-05-04 01:05:00,42.4,36.0,30.34,NNW,338,0.0,0.0,78,0.00,,,0.00,0000,Weather View 32 v70,2013-05-04 05:05:00,
2013-05-04 01:15:00,41.8,35.5,30.33,NNW,338,0.0,0.0,78,0.00,,,0.00,0000,Weather View 32 v70,2013-05-04 05:15:00,
2013-05-04 01:20:00,41.7,35.7,30.33,NNW,338,0.0,0.0,79,0.00,,,0.00,0000,Weather View 32 v70,2013-05-04 05:20:00,
2013-05-04 01:30:00,41.4,35.3,30.33,NNW,338,0.0,0.0,79,0.00,,,0.00,0000,Weather View 32 v70,2013-05-04 05:30:00,
2013-05-04 01:40:00,40.9,34.9,30.32,NNW,338,0.0,0.0,79,0.00,,,0.00,0000,Weather View 32 v70,2013-05-04 05:40:00,
2013-05-04 01:45:00,40.8,35.1,30.32,NNW,338,0.0,0.0,80,0.00,,,0.00,0000,Weather View 32 v70,2013-05-04 05:45:00,
2013-05-04 01:55:00,40.9,35.5,30.32,NNW,338,0.0,0.0,81,0.00,,,0.00,0000,Weather View 32 v70,2013-05-04 05:55:00,
2013-05-04 02:00:00,40.9,35.5,30.32,North,0,0.0,0.0,81,0.00,,,0.00,0000,Weather View 32 v70,2013-05-04 06:00:00,
2013-05-04 02:05:00,40.9,35.5,30.31,North,0,0.0,0.0,81,0.00,,,0.00,0000,Weather View 32 v70,2013-05-04 06:05:00,
2013-05-04 02:10:00,40.8,35.4,30.32,North,0,0.0,0.0,81,0.00,,,0.00,0000,Weather View 32 v70,2013-05-04 06:10:00,
2013-05-04 02:15:00,40.6,34.9,30.32,North,0,0.0,0.0,80,0.00,,,0.00,0000,Weather View 32 v70,2013-05-04 06:15:00,
2013-05-04 02:25:00,40.5,35.4,30.31,NNW,338,0.0,0.0,82,0.00,,,0.00,0000,Weather View 32 v70,2013-05-04 06:25:00,
2013-05-04 02:30:00,40.5,35.4,30.31,NNW,338,0.0,0.0,82,0.00,,,0.00,0000,Weather View 32 v70,2013-05-04 06:30:00,
2013-05-04 02:40:00,40.6,35.5,30.31,NNW,338,0.0,0.0,82,0.00,,,0.00,0000,Weather View 32 v70,2013-05-04 06:40:00,
2013-05-04 02:45:00,40.5,35.4,30.30,NNW,338,0.0,0.0,82,0.00,,,0.00,0000,Weather View 32 v70,2013-05-04 06:45:00,
2013-05-04 02:50:00,40.4,35.3,30.30,NNW,338,0.0,0.0,82,0.00,,,0.00,0000,Weather View 32 v70,2013-05-04 06:50:00,
2013-05-04 03:00:00,40.1,35.1,30.31,NNW,338,0.0,0.0,82,0.00,,,0.00,0000,Weather View 32 v70,2013-05-04 07:00:00,
2013-05-04 03:10:00,40.0,35.3,30.32,NNW,338,0.0,0.0,83,0.00,,,0.00,0000,Weather View 32 v70,2013-05-04 07:10:00,
2013-05-04 03:15:00,39.9,35.2,30.31,NNW,338,0.0,0.0,83,0.00,,,0.00,0000,Weather View 32 v70,2013-05-04 07:15:00,
2013-05-04 03:25:00,39.9,35.2,30.31,NNW,338,0.0,0.0,83,0.00,,,0.00,0000,Weather View 32 v70,2013-05-04 07:25:00,
2013-05-04 03:30:00,39.9,35.2,30.31,NNW,338,0.0,0.0,83,0.00,,,0.00,0000,Weather View 32 v70,2013-05-04 07:30:00,
2013-05-04 03:35:00,39.9,35.2,30.31,NNW,338,0.0,0.0,83,0.00,,,0.00,0000,Weather View 32 v70,2013-05-04 07:35:00,
2013-05-04 03:45:00,39.7,34.6,30.30,NNW,338,0.0,0.0,82,0.00,,,0.00,0000,Weather View 32 v70,2013-05-04 07:45:00,
2013-05-04 03:51:00,39.5,34.7,30.30,NNW,338,0.0,0.0,83,0.00,,,0.00,0000,Weather View 32 v70,2013-05-04 07:51:00,
2013-05-04 04:00:00,38.8,33.7,30.30,NNW,338,0.0,0.0,82,0.00,,,0.00,0000,Weather View 32 v70,2013-05-04 08:00:00,
2013-05-04 04:10:00,38.8,34.3,30.31,NNW,338,0.0,0.0,84,0.00,,,0.00,0000,Weather View 32 v70,2013-05-04 08:10:00,
2013-05-04 04:15:00,38.8,34.3,30.31,NNW,338,0.0,0.0,84,0.00,,,0.00,0000,Weather View 32 v70,2013-05-04 08:15:00,
2013-05-04 04:20:00,38.8,34.6,30.30,NNW,338,0.0,0.0,85,0.00,,,0.00,0000,Weather View 32 v70,2013-05-04 08:20:00,
2013-05-04 04:25:00,38.8,34.6,30.30,North,0,0.0,0.0,85,0.00,,,0.00,0000,Weather View 32 v70,2013-05-04 08:25:00,
2013-05-04 04:35:00,38.3,33.9,30.30,NNE,23,0.0,0.0,84,0.00,,,0.00,0000,Weather View 32 v70,2013-05-04 08:35:00,
2013-05-04 04:40:00,38.1,33.4,30.31,North,0,0.0,2.0,83,0.00,,,0.00,0000,Weather View 32 v70,2013-05-04 08:40:00,
2013-05-04 04:50:00,38.0,33.6,30.30,NNE,23,0.0,2.0,84,0.00,,,0.00,0008,Weather View 32 v70,2013-05-04 08:50:00,
2013-05-04 04:55:00,38.0,33.6,30.30,NNE,23,0.0,2.0,84,0.00,,,0.00,0000,Weather View 32 v70,2013-05-04 08:55:00,
2013-05-04 05:00:00,38.1,33.7,30.30,North,0,0.0,2.0,84,0.00,,,0.00,0000,Weather View 32 v70,2013-05-04 09:00:00,
2013-05-04 05:10:00,38.3,34.2,30.30,North,0,0.0,2.0,85,0.00,,,0.00,0000,Weather View 32 v70,2013-05-04 09:10:00,
2013-05-04 05:15:00,38.4,34.3,30.31,North,0,0.0,2.0,85,0.00,,,0.00,0000,Weather View 32 v70,2013-05-04 09:15:00,
2013-05-04 05:20:00,38.4,34.3,30.31,North,0,0.0,2.0,85,0.00,,,0.00,0000,Weather View 32 v70,2013-05-04 09:20:00,
2013-05-04 05:25:00,38.6,34.4,30.30,North,0,0.0,2.0,85,0.00,,,0.00,0000,Weather View 32 v70,2013-05-04 09:25:00,
2013-05-04 05:35:00,38.4,34.3,30.30,North,0,0.0,2.0,85,0.00,,,0.00,0000,Weather View 32 v70,2013-05-04 09:35:00,
2013-05-04 05:45:00,38.6,34.4,30.31,NNE,23,0.0,0.0,85,0.00,,,0.00,0008,Weather View 32 v70,2013-05-04 09:45:00,
2013-05-04 05:52:00,38.4,34.0,30.32,North,0,0.0,0.0,84,0.00,,,0.00,0000,Weather View 32 v70,2013-05-04 09:52:00,
2013-05-04 06:00:00,38.8,34.6,30.32,NNE,23,0.0,1.0,85,0.00,,,0.00,0016,Weather View 32 v70,2013-05-04 10:00:00,
2013-05-04 06:05:00,38.8,34.6,30.32,North,0,0.0,1.0,85,0.00,,,0.00,0000,Weather View 32 v70,2013-05-04 10:05:00,
2013-05-04 06:10:00,38.9,34.8,30.32,NNW,338,0.0,1.0,85,0.00,,,0.00,0024,Weather View 32 v70,2013-05-04 10:10:00,
2013-05-04 06:15:00,38.8,34.3,30.32,North,0,0.0,1.0,84,0.00,,,0.00,0008,Weather View 32 v70,2013-05-04 10:15:00,
2013-05-04 06:20:00,39.0,34.9,30.32,North,0,0.0,1.0,85,0.00,,,0.00,0016,Weather View 32 v70,2013-05-04 10:20:00,
2013-05-04 06:25:00,39.1,35.0,30.32,NNE,23,0.0,1.0,85,0.00,,,0.00,0016,Weather View 32 v70,2013-05-04 10:25:00,
2013-05-04 06:35:00,39.8,35.6,30.32,NNE,23,0.0,1.0,85,0.00,,,0.00,0008,Weather View 32 v70,2013-05-04 10:35:00,
2013-05-04 06:40:00,40.5,36.6,30.32,North,0,0.0,2.0,86,0.00,,,0.00,0056,Weather View 32 v70,2013-05-04 10:40:00,
2013-05-04 06:45:00,40.9,37.1,30.32,North,0,0.0,3.0,86,0.00,,,0.00,0080,Weather View 32 v70,2013-05-04 10:45:00,
2013-05-04 06:52:00,41.7,37.8,30.32,North,0,0.0,3.0,86,0.00,,,0.00,0128,Weather View 32 v70,2013-05-04 10:52:00,
2013-05-04 07:00:00,42.8,38.6,30.32,North,0,0.0,5.0,85,0.00,,,0.00,0160,Weather View 32 v70,2013-05-04 11:00:00,
2013-05-04 07:10:00,44.0,39.1,30.32,NNW,338,0.0,11.0,83,0.00,,,0.00,0200,Weather View 32 v70,2013-05-04 11:10:00,
2013-05-04 07:15:00,44.7,39.3,30.32,NNE,23,3.0,11.0,81,0.00,,,0.00,0184,Weather View 32 v70,2013-05-04 11:15:00,
2013-05-04 07:20:00,45.4,39.6,30.32,East,90,0.0,11.0,80,0.00,,,0.00,0240,Weather View 32 v70,2013-05-04 11:20:00,
2013-05-04 07:25:00,45.9,39.4,30.32,NNW,338,0.0,11.0,78,0.00,,,0.00,0232,Weather View 32 v70,2013-05-04 11:25:00,
2013-05-04 07:35:00,46.9,39.7,30.32,NE,45,3.0,11.0,76,0.00,,,0.00,0256,Weather View 32 v70,2013-05-04 11:35:00,
2013-05-04 07:40:00,47.3,39.8,30.32,North,0,0.0,11.0,75,0.00,,,0.00,0256,Weather View 32 v70,2013-05-04 11:40:00,
2013-05-04 07:50:00,49.0,40.4,30.32,NNE,23,0.0,11.0,72,0.00,,,0.00,0296,Weather View 32 v70,2013-05-04 11:50:00,
2013-05-04 08:00:00,50.0,40.6,30.32,NE,45,1.0,11.0,70,0.00,,,0.00,0344,Weather View 32 v70,2013-05-04 12:00:00,
2013-05-04 08:05:00,50.8,41.0,30.32,NE,45,6.0,11.0,69,0.00,,,0.00,0344,Weather View 32 v70,2013-05-04 12:05:00,
2013-05-04 08:15:00,52.1,41.4,30.31,NNW,338,0.0,9.0,67,0.00,,,0.00,0368,Weather View 32 v70,2013-05-04 12:15:00,
2013-05-04 08:20:00,52.5,41.4,30.32,NE,45,1.0,9.0,66,0.00,,,0.00,0376,Weather View 32 v70,2013-05-04 12:20:00,
2013-05-04 08:25:00,53.1,41.6,30.32,NW,315,4.0,9.0,65,0.00,,,0.00,0392,Weather View 32 v70,2013-05-04 12:25:00,
2013-05-04 08:30:00,53.4,41.1,30.31,NE,45,1.0,9.0,63,0.00,,,0.00,0408,Weather View 32 v70,2013-05-04 12:30:00,
2013-05-04 08:45:00,55.0,41.3,30.32,North,0,0.0,12.0,60,0.00,,,0.00,0448,Weather View 32 v70,2013-05-04 12:45:00,
2013-05-04 08:53:00,55.8,40.7,30.32,NE,45,4.0,12.0,57,0.00,,,0.00,0472,Weather View 32 v70,2013-05-04 12:53:00,
2013-05-04 09:00:00,55.8,40.3,30.32,NE,45,3.0,12.0,56,0.00,,,0.00,0496,Weather View 32 v70,2013-05-04 13:00:00,
2013-05-04 09:05:00,56.4,40.0,30.32,North,0,6.0,12.0,54,0.00,,,0.00,0528,Weather View 32 v70,2013-05-04 13:05:00,
2013-05-04 09:15:00,56.3,39.9,30.32,NNE,23,4.0,12.0,54,0.00,,,0.00,0544,Weather View 32 v70,2013-05-04 13:15:00,
2013-05-04 09:20:00,56.9,40.4,30.31,NW,315,1.0,12.0,54,0.00,,,0.00,0568,Weather View 32 v70,2013-05-04 13:20:00,
2013-05-04 09:25:00,56.9,39.4,30.31,ENE,68,2.0,12.0,52,0.00,,,0.00,0584,Weather View 32 v70,2013-05-04 13:25:00,
2013-05-04 09:35:00,58.2,39.6,30.31,East,90,1.0,12.0,50,0.00,,,0.00,0568,Weather View 32 v70,2013-05-04 13:35:00,
2013-05-04 09:45:00,59.1,39.4,30.31,NE,45,2.0,11.0,48,0.00,,,0.00,0616,Weather View 32 v70,2013-05-04 13:45:00,
2013-05-04 09:54:00,59.5,40.3,30.31,SE,135,0.0,11.0,49,0.00,,,0.00,0600,Weather View 32 v70,2013-05-04 13:54:00,
2013-05-04 10:00:00,59.9,39.6,30.31,North,0,2.0,10.0,47,0.00,,,0.00,0640,Weather View 32 v70,2013-05-04 14:00:00,
2013-05-04 10:10:00,60.7,39.2,30.30,NNE,23,0.0,15.0,45,0.00,,,0.00,0688,Weather View 32 v70,2013-05-04 14:10:00,
2013-05-04 10:15:00,60.6,39.1,30.30,East,90,2.0,15.0,45,0.00,,,0.00,0696,Weather View 32 v70,2013-05-04 14:15:00,
2013-05-04 10:20:00,60.8,41.5,30.31,NNE,23,0.0,15.0,49,0.00,,,0.00,0336,Weather View 32 v70,2013-05-04 14:20:00,
2013-05-04 10:25:00,60.6,39.1,30.31,NE,45,0.0,15.0,45,0.00,,,0.00,0696,Weather View 32 v70,2013-05-04 14:25:00,
2013-05-04 10:30:00,61.1,40.1,30.31,NNE,23,6.0,15.0,46,0.00,,,0.00,0696,Weather View 32 v70,2013-05-04 14:30:00,
2013-05-04 10:40:00,61.7,39.5,30.30,NE,45,3.0,15.0,44,0.00,,,0.00,0720,Weather View 32 v70,2013-05-04 14:40:00,
2013-05-04 10:50:00,62.2,39.3,30.30,NNE,23,3.0,15.0,43,0.00,,,0.00,0752,Weather View 32 v70,2013-05-04 14:50:00,
2013-05-04 10:55:00,61.5,38.7,30.30,NNE,23,0.0,15.0,43,0.00,,,0.00,0784,Weather View 32 v70,2013-05-04 14:55:00,
2013-05-04 11:00:00,62.0,40.3,30.30,NNE,23,3.0,15.0,45,0.00,,,0.00,0776,Weather View 32 v70,2013-05-04 15:00:00,
2013-05-04 11:10:00,62.7,39.9,30.30,North,0,3.0,13.0,43,0.00,,,0.00,0800,Weather View 32 v70,2013-05-04 15:10:00,
2013-05-04 11:15:00,63.1,38.9,30.30,ESE,113,4.0,20.0,41,0.00,,,0.00,0816,Weather View 32 v70,2013-05-04 15:15:00,
2013-05-04 11:25:00,62.6,39.8,30.30,ENE,68,0.0,20.0,43,0.00,,,0.00,0792,Weather View 32 v70,2013-05-04 15:25:00,
2013-05-04 11:30:00,63.1,38.9,30.30,East,90,3.0,20.0,41,0.00,,,0.00,0816,Weather View 32 v70,2013-05-04 15:30:00,
2013-05-04 11:35:00,63.1,38.3,30.30,ENE,68,1.0,20.0,40,0.00,,,0.00,0824,Weather View 32 v70,2013-05-04 15:35:00,
2013-05-04 11:40:00,62.6,38.5,30.30,NNE,23,3.0,20.0,41,0.00,,,0.00,0792,Weather View 32 v70,2013-05-04 15:40:00,
2013-05-04 11:45:00,63.4,39.2,30.30,North,0,4.0,20.0,41,0.00,,,0.00,0792,Weather View 32 v70,2013-05-04 15:45:00,
2013-05-04 11:50:00,63.1,38.9,30.30,ESE,113,2.0,20.0,41,0.00,,,0.00,0832,Weather View 32 v70,2013-05-04 15:50:00,
2013-05-04 11:55:00,63.3,39.1,30.30,ESE,113,5.0,20.0,41,0.00,,,0.00,0816,Weather View 32 v70,2013-05-04 15:55:00,
2013-05-04 12:05:00,63.3,38.5,30.29,North,0,6.0,20.0,40,0.00,,,0.00,0840,Weather View 32 v70,2013-05-04 16:05:00,
2013-05-04 12:10:00,63.0,38.2,30.29,NNW,338,3.0,20.0,40,0.00,,,0.00,0848,Weather View 32 v70,2013-05-04 16:10:00,
2013-05-04 12:20:00,63.9,39.0,30.28,NE,45,1.0,19.0,40,0.00,,,0.00,0832,Weather View 32 v70,2013-05-04 16:20:00,
2013-05-04 12:25:00,64.5,39.0,30.29,NNE,23,0.0,19.0,39,0.00,,,0.00,0856,Weather View 32 v70,2013-05-04 16:25:00,
2013-05-04 12:35:00,64.4,37.5,30.29,East,90,0.0,18.0,37,0.00,,,0.00,0832,Weather View 32 v70,2013-05-04 16:35:00,
2013-05-04 12:45:00,64.5,39.0,30.29,NW,315,0.0,18.0,39,0.00,,,0.00,0856,Weather View 32 v70,2013-05-04 16:45:00,
2013-05-04 12:50:00,64.4,35.4,30.28,East,90,5.0,18.0,34,0.00,,,0.00,0848,Weather View 32 v70,2013-05-04 16:50:00,
2013-05-04 12:56:00,64.5,35.5,30.28,North,0,5.0,18.0,34,0.00,,,0.00,0832,Weather View 32 v70,2013-05-04 16:56:00,
2013-05-04 13:05:00,64.7,35.6,30.28,NE,45,6.0,18.0,34,0.00,,,0.00,0848,Weather View 32 v70,2013-05-04 17:05:00,
2013-05-04 13:10:00,64.4,36.8,30.28,ESE,113,0.0,18.0,36,0.00,,,0.00,0824,Weather View 32 v70,2013-05-04 17:10:00,
2013-05-04 13:20:00,65.0,35.1,30.28,East,90,8.0,18.0,33,0.00,,,0.00,0832,Weather View 32 v70,2013-05-04 17:20:00,
2013-05-04 13:25:00,64.5,34.7,30.28,ESE,113,8.0,18.0,33,0.00,,,0.00,0824,Weather View 32 v70,2013-05-04 17:25:00,
2013-05-04 13:35:00,65.4,35.5,30.28,NNE,23,4.0,16.0,33,0.00,,,0.00,0792,Weather View 32 v70,2013-05-04 17:35:00,
2013-05-04 13:40:00,65.7,35.7,30.28,ENE,68,0.0,16.0,33,0.00,,,0.00,0832,Weather View 32 v70,2013-05-04 17:40:00,
2013-05-04 13:45:00,64.5,34.0,30.28,NNE,23,3.0,17.0,32,0.00,,,0.00,0816,Weather View 32 v70,2013-05-04 17:45:00,
2013-05-04 13:50:00,65.1,36.0,30.27,NE,45,4.0,17.0,34,0.00,,,0.00,0824,Weather View 32 v70,2013-05-04 17:50:00,
2013-05-04 13:55:00,65.3,35.4,30.28,SE,135,3.0,18.0,33,0.00,,,0.00,0784,Weather View 32 v70,2013-05-04 17:55:00,
2013-05-04 14:00:00,65.0,34.3,30.28,ESE,113,3.0,18.0,32,0.00,,,0.00,0768,Weather View 32 v70,2013-05-04 18:00:00,
2013-05-04 14:05:00,64.4,34.6,30.27,East,90,10.0,18.0,33,0.00,,,0.00,0800,Weather View 32 v70,2013-05-04 18:05:00,
2013-05-04 14:15:00,64.3,34.5,30.27,SE,135,3.0,18.0,33,0.00,,,0.00,0768,Weather View 32 v70,2013-05-04 18:15:00,
2013-05-04 14:20:00,64.4,33.8,30.27,NE,45,2.0,22.0,32,0.00,,,0.00,0768,Weather View 32 v70,2013-05-04 18:20:00,
2013-05-04 14:25:00,64.5,34.0,30.27,NNE,23,2.0,22.0,32,0.00,,,0.00,0760,Weather View 32 v70,2013-05-04 18:25:00,
2013-05-04 14:30:00,64.4,35.4,30.27,East,90,4.0,22.0,34,0.00,,,0.00,0752,Weather View 32 v70,2013-05-04 18:30:00,
2013-05-04 14:40:00,64.5,33.2,30.27,NE,45,4.0,22.0,31,0.00,,,0.00,0720,Weather View 32 v70,2013-05-04 18:40:00,
2013-05-04 14:50:00,63.6,31.6,30.27,NE,45,8.0,22.0,30,0.00,,,0.00,0704,Weather View 32 v70,2013-05-04 18:50:00,
2013-05-04 14:55:00,64.1,32.0,30.27,NE,45,4.0,22.0,30,0.00,,,0.00,0696,Weather View 32 v70,2013-05-04 18:55:00,
2013-05-04 15:00:00,64.0,31.0,30.27,NE,45,2.0,22.0,29,0.00,,,0.00,0704,Weather View 32 v70,2013-05-04 19:00:00,
2013-05-04 15:05:00,63.6,30.7,30.27,NE,45,4.0,22.0,29,0.00,,,0.00,0688,Weather View 32 v70,2013-05-04 19:05:00,
2013-05-04 15:15:00,63.3,31.3,30.26,NE,45,2.0,22.0,30,0.00,,,0.00,0680,Weather View 32 v70,2013-05-04 19:15:00,
2013-05-04 15:25:00,63.5,30.6,30.26,NE,45,2.0,18.0,29,0.00,,,0.00,0640,Weather View 32 v70,2013-05-04 19:25:00,
2013-05-04 15:35:00,63.5,28.9,30.26,SSE,158,7.0,18.0,27,0.00,,,0.00,0648,Weather View 32 v70,2013-05-04 19:35:00,
2013-05-04 15:40:00,63.0,31.0,30.25,East,90,0.0,18.0,30,0.00,,,0.00,0608,Weather View 32 v70,2013-05-04 19:40:00,
2013-05-04 15:45:00,62.9,30.0,30.25,ENE,68,0.0,18.0,29,0.00,,,0.00,0584,Weather View 32 v70,2013-05-04 19:45:00,
2013-05-04 15:55:00,62.7,30.8,30.26,NNE,23,1.0,18.0,30,0.00,,,0.00,0552,Weather View 32 v70,2013-05-04 19:55:00,
2013-05-04 16:05:00,62.4,29.7,30.25,East,90,1.0,21.0,29,0.00,,,0.00,0544,Weather View 32 v70,2013-05-04 20:05:00,
2013-05-04 16:15:00,62.3,29.6,30.25,NNE,23,0.0,21.0,29,0.00,,,0.00,0520,Weather View 32 v70,2013-05-04 20:15:00,
2013-05-04 16:20:00,62.0,28.4,30.25,ESE,113,11.0,21.0,28,0.00,,,0.00,0488,Weather View 32 v70,2013-05-04 20:20:00,
2013-05-04 16:25:00,62.0,29.3,30.26,NNE,23,5.0,21.0,29,0.00,,,0.00,0504,Weather View 32 v70,2013-05-04 20:25:00,
2013-05-04 16:35:00,62.7,30.8,30.25,North,0,0.0,21.0,30,0.00,,,0.00,0464,Weather View 32 v70,2013-05-04 20:35:00,
2013-05-04 16:45:00,61.1,29.3,30.26,NE,45,8.0,21.0,30,0.00,,,0.00,0464,Weather View 32 v70,2013-05-04 20:45:00,
2013-05-04 16:50:00,60.7,29.8,30.26,East,90,1.0,21.0,31,0.00,,,0.00,0440,Weather View 32 v70,2013-05-04 20:50:00,
2013-05-04 16:55:00,61.2,30.2,30.26,NE,45,0.0,21.0,31,0.00,,,0.00,0240,Weather View 32 v70,2013-05-04 20:55:00,
2013-05-04 17:00:00,60.8,29.1,30.26,ENE,68,3.0,16.0,30,0.00,,,0.00,0200,Weather View 32 v70,2013-05-04 21:00:00,
2013-05-04 17:05:00,60.3,27.8,30.26,SE,135,0.0,16.0,29,0.00,,,0.00,0264,Weather View 32 v70,2013-05-04 21:05:00,
2013-05-04 17:10:00,59.8,28.3,30.26,ENE,68,0.0,15.0,30,0.00,,,0.00,0248,Weather View 32 v70,2013-05-04 21:10:00,
2013-05-04 17:15:00,59.5,28.8,30.26,East,90,1.0,15.0,31,0.00,,,0.00,0184,Weather View 32 v70,2013-05-04 21:15:00,
2013-05-04 17:20:00,59.3,27.8,30.26,East,90,7.0,15.0,30,0.00,,,0.00,0160,Weather View 32 v70,2013-05-04 21:20:00,
2013-05-04 17:25:00,58.8,27.4,30.26,ENE,68,0.0,15.0,30,0.00,,,0.00,0160,Weather View 32 v70,2013-05-04 21:25:00,
2013-05-04 17:30:00,58.1,34.5,30.26,ESE,113,9.0,15.0,41,0.00,,,0.00,0224,Weather View 32 v70,2013-05-04 21:30:00,
2013-05-04 17:40:00,57.2,34.9,30.26,ESE,113,3.0,15.0,43,0.00,,,0.00,0264,Weather View 32 v70,2013-05-04 21:40:00,
2013-05-04 17:45:00,56.8,35.0,30.26,East,90,3.0,15.0,44,0.00,,,0.00,0232,Weather View 32 v70,2013-05-04 21:45:00,
2013-05-04 17:50:00,55.7,35.2,30.26,East,90,1.0,19.0,46,0.00,,,0.00,0096,Weather View 32 v70,2013-05-04 21:50:00,
2013-05-04 17:58:00,55.3,35.4,30.26,SE,135,7.0,19.0,47,0.00,,,0.00,0136,Weather View 32 v70,2013-05-04 21:58:00,
2013-05-04 18:05:00,54.3,36.0,30.26,East,90,2.0,19.0,50,0.00,,,0.00,0208,Weather View 32 v70,2013-05-04 22:05:00,
2013-05-04 18:15:00,53.7,36.5,30.26,East,90,0.0,19.0,52,0.00,,,0.00,0080,Weather View 32 v70,2013-05-04 22:15:00,
2013-05-04 18:20:00,53.4,36.7,30.26,ENE,68,3.0,19.0,53,0.00,,,0.00,0088,Weather View 32 v70,2013-05-04 22:20:00,
2013-05-04 18:25:00,53.0,36.7,30.27,ESE,113,6.0,19.0,54,0.00,,,0.00,0088,Weather View 32 v70,2013-05-04 22:25:00,
2013-05-04 18:30:00,52.5,36.3,30.27,ESE,113,1.0,19.0,54,0.00,,,0.00,0032,Weather View 32 v70,2013-05-04 22:30:00,
2013-05-04 18:40:00,51.8,37.0,30.27,East,90,2.0,19.0,57,0.00,,,0.00,0080,Weather View 32 v70,2013-05-04 22:40:00,
2013-05-04 18:45:00,51.4,36.6,30.27,West,270,0.0,19.0,57,0.00,,,0.00,0056,Weather View 32 v70,2013-05-04 22:45:00,
2013-05-04 18:55:00,50.9,36.6,30.27,East,90,0.0,15.0,58,0.00,,,0.00,0016,Weather View 32 v70,2013-05-04 22:55:00,
2013-05-04 19:00:00,50.6,36.8,30.27,East,90,1.0,14.0,59,0.00,,,0.00,0024,Weather View 32 v70,2013-05-04 23:00:00,
2013-05-04 19:10:00,50.0,36.7,30.27,SE,135,3.0,14.0,60,0.00,,,0.00,0008,Weather View 32 v70,2013-05-04 23:10:00,
2013-05-04 19:15:00,49.7,36.8,30.27,SE,135,2.0,14.0,61,0.00,,,0.00,0000,Weather View 32 v70,2013-05-04 23:15:00,
2013-05-04 19:25:00,48.9,36.8,30.27,North,0,1.0,11.0,63,0.00,,,0.00,0008,Weather View 32 v70,2013-05-04 23:25:00,
2013-05-04 19:30:00,48.7,37.0,30.27,East,90,2.0,11.0,64,0.00,,,0.00,0000,Weather View 32 v70,2013-05-04 23:30:00,
2013-05-04 19:35:00,48.5,36.4,30.27,East,90,0.0,11.0,63,0.00,,,0.00,0000,Weather View 32 v70,2013-05-04 23:35:00,
2013-05-04 19:45:00,47.8,36.2,30.27,ESE,113,0.0,11.0,64,0.00,,,0.00,0008,Weather View 32 v70,2013-05-04 23:45:00,
2013-05-04 19:50:00,47.4,36.6,30.27,East,90,2.0,11.0,66,0.00,,,0.00,0000,Weather View 32 v70,2013-05-04 23:50:00,
2013-05-04 19:55:00,47.3,36.5,30.27,NE,45,0.0,11.0,66,0.00,,,0.00,0000,Weather View 32 v70,2013-05-04 23:55:00,
2013-05-04 20:00:00,47.0,36.2,30.28,NE,45,0.0,12.0,66,0.00,,,0.00,0000,Weather View 32 v70,2013-05-05 00:00:00,
2013-05-04 20:10:00,46.4,36.0,30.28,NE,45,0.0,12.0,67,0.00,,,0.00,0000,Weather View 32 v70,2013-05-05 00:10:00,
2013-05-04 20:20:00,45.8,35.8,30.29,ENE,68,0.0,12.0,68,0.00,,,0.00,0000,Weather View 32 v70,2013-05-05 00:20:00,
2013-05-04 20:30:00,45.1,35.5,30.29,NE,45,0.0,12.0,69,0.00,,,0.00,0008,Weather View 32 v70,2013-05-05 00:30:00,
2013-05-04 20:40:00,44.5,35.3,30.29,ENE,68,0.0,12.0,70,0.00,,,0.00,0000,Weather View 32 v70,2013-05-05 00:40:00,
2013-05-04 20:50:00,44.1,35.3,30.29,ENE,68,1.0,12.0,71,0.00,,,0.00,0000,Weather View 32 v70,2013-05-05 00:50:00,
2013-05-04 20:55:00,43.7,35.3,30.29,NNE,23,2.0,12.0,72,0.00,,,0.00,0000,Weather View 32 v70,2013-05-05 00:55:00,
2013-05-04 21:00:00,43.5,35.1,30.30,NNE,23,0.0,5.0,72,0.00,,,0.00,0000,Weather View 32 v70,2013-05-05 01:00:00,
2013-05-04 21:10:00,42.9,34.9,30.30,NNE,23,0.0,5.0,73,0.00,,,0.00,0000,Weather View 32 v70,2013-05-05 01:10:00,
2013-05-04 21:15:00,42.7,35.0,30.30,North,0,0.0,5.0,74,0.00,,,0.00,0000,Weather View 32 v70,2013-05-05 01:15:00,
2013-05-04 21:20:00,42.6,34.9,30.30,North,0,0.0,5.0,74,0.00,,,0.00,0000,Weather View 32 v70,2013-05-05 01:20:00,
2013-05-04 21:25:00,42.4,34.7,30.30,NNE,23,0.0,3.0,74,0.00,,,0.00,0000,Weather View 32 v70,2013-05-05 01:25:00,
2013-05-04 21:30:00,42.3,34.6,30.29,NNE,23,0.0,3.0,74,0.00,,,0.00,0000,Weather View 32 v70,2013-05-05 01:30:00,
2013-05-04 21:35:00,42.2,34.5,30.29,North,0,0.0,3.0,74,0.00,,,0.00,0000,Weather View 32 v70,2013-05-05 01:35:00,
2013-05-04 21:40:00,42.0,34.3,30.29,NNE,23,0.0,3.0,74,0.00,,,0.00,0000,Weather View 32 v70,2013-05-05 01:40:00,
2013-05-04 21:45:00,41.9,34.2,30.30,NE,45,0.0,3.0,74,0.00,,,0.00,0000,Weather View 32 v70,2013-05-05 01:45:00,
2013-05-04 21:50:00,41.8,34.1,30.30,North,0,0.0,3.0,74,0.00,,,0.00,0008,Weather View 32 v70,2013-05-05 01:50:00,
2013-05-04 22:00:00,41.8,34.1,30.30,NNE,23,0.0,1.0,74,0.00,,,0.00,0000,Weather View 32 v70,2013-05-05 02:00:00,
2013-05-04 22:05:00,41.6,33.6,30.30,North,0,0.0,2.0,73,0.00,,,0.00,0008,Weather View 32 v70,2013-05-05 02:05:00,
2013-05-04 22:15:00,41.3,33.6,30.30,North,0,0.0,2.0,74,0.00,,,0.00,0000,Weather View 32 v70,2013-05-05 02:15:00,
2013-05-04 22:20:00,41.1,33.5,30.30,North,0,0.0,2.0,74,0.00,,,0.00,0000,Weather View 32 v70,2013-05-05 02:20:00,
2013-05-04 22:30:00,40.9,33.9,30.30,NNW,338,0.0,2.0,76,0.00,,,0.00,0000,Weather View 32 v70,2013-05-05 02:30:00,
2013-05-04 22:40:00,40.7,33.7,30.30,NNE,23,0.0,2.0,76,0.00,,,0.00,0008,Weather View 32 v70,2013-05-05 02:40:00,
2013-05-04 22:45:00,40.7,33.7,30.30,North,0,0.0,2.0,76,0.00,,,0.00,0000,Weather View 32 v70,2013-05-05 02:45:00,
2013-05-04 22:50:00,40.5,33.5,30.30,North,0,0.0,2.0,76,0.00,,,0.00,0008,Weather View 32 v70,2013-05-05 02:50:00,
2013-05-04 23:00:00,40.4,33.4,30.30,North,0,0.0,2.0,76,0.00,,,0.00,0000,Weather View 32 v70,2013-05-05 03:00:00,
2013-05-04 23:10:00,40.0,33.7,30.30,North,0,0.0,0.0,78,0.00,,,0.00,0000,Weather View 32 v70,2013-05-05 03:10:00,
2013-05-04 23:15:00,39.9,33.6,30.30,NNW,338,0.0,0.0,78,0.00,,,0.00,0008,Weather View 32 v70,2013-05-05 03:15:00,
2013-05-04 23:20:00,39.8,33.5,30.30,NNW,338,0.0,0.0,78,0.00,,,0.00,0000,Weather View 32 v70,2013-05-05 03:20:00,
2013-05-04 23:25:00,39.7,33.4,30.30,NNW,338,0.0,0.0,78,0.00,,,0.00,0000,Weather View 32 v70,2013-05-05 03:25:00,
2013-05-04 23:35:00,39.5,33.2,30.30,NNW,338,0.0,0.0,78,0.00,,,0.00,0008,Weather View 32 v70,2013-05-05 03:35:00,
2013-05-04 23:45:00,39.1,33.2,30.30,NNW,338,0.0,0.0,79,0.00,,,0.00,0008,Weather View 32 v70,2013-05-05 03:45:00,
2013-05-04 23:50:00,39.0,33.3,30.30,NNW,338,0.0,0.0,80,0.00,,,0.00,0000,Weather View 32 v70,2013-05-05 03:50:00,